Archival Weather

Chicago O'Hare International

Chicago, Illinois (KORD)

Report from: Wednesday, February 7, 2024 2:51 PM CST
Current time: Wednesday, April 24, 2024 1:19 PM CDT

Current weather – Weather history – Daily summaries
Weather forecast

Temperature8.9°C (48.0°F)
Wind chill7.1°C (44.9°F)
Dew point0.0°C (32.0°F)
Winds 6 kts (3.1 m/s, 6.9 mph) South-Southwest (200°)
Visibility10 mi. (16.1 km)
Clouds Scattered clouds 17,000 ft. (5,182 m)
Ceiling: Broken clouds 21,000 ft. (6,401 m)
Overcast 25,000 ft. (7,620 m)
Altimeter30.09 in.Hg (1019 mB)
Relative humidity54 %
Density altitude-842 ft. (-257 m)
Sea-level pressure101.9 kPa (1019 mB, 30.10 in.Hg)
Remarks Automated weather observing station with precipitation discriminator
Pressure falling, then rising
Flight conditions Visual Meteorological Conditions
Raw dataKORD 072051Z 20006KT 10SM SCT170 BKN210 OVC250 09/00 A3009 RMK AO2 SLP193 T00890000 55022
An error has occurred. This application may no longer respond until reloaded. Reload 🗙